sensor_id;sensor_type;location;lat;lon;timestamp;P1;durP1;ratioP1;P2;durP2;ratioP2
20255;SDS011;10286;59.364;18.016;2023-03-16T00:01:40;4.28;;;1.40;;
20255;SDS011;10286;59.364;18.016;2023-03-16T00:04:06;3.17;;;1.27;;
20255;SDS011;10286;59.364;18.016;2023-03-16T00:06:35;2.45;;;1.60;;
20255;SDS011;10286;59.364;18.016;2023-03-16T00:09:02;2.13;;;1.45;;
20255;SDS011;10286;59.364;18.016;2023-03-16T00:11:29;4.55;;;1.80;;
20255;SDS011;10286;59.364;18.016;2023-03-16T00:13:56;2.25;;;1.50;;
20255;SDS011;10286;59.364;18.016;2023-03-16T00:16:23;3.53;;;1.35;;
20255;SDS011;10286;59.364;18.016;2023-03-16T00:18:50;2.50;;;1.45;;
20255;SDS011;10286;59.364;18.016;2023-03-16T00:21:16;4.03;;;1.45;;
20255;SDS011;10286;59.364;18.016;2023-03-16T00:23:45;2.20;;;1.48;;
20255;SDS011;10286;59.364;18.016;2023-03-16T00:26:11;2.75;;;1.73;;
20255;SDS011;10286;59.364;18.016;2023-03-16T00:28:39;2.10;;;1.40;;
20255;SDS011;10286;59.364;18.016;2023-03-16T00:31:07;1.55;;;1.45;;
20255;SDS011;10286;59.364;18.016;2023-03-16T00:33:36;2.78;;;1.65;;
20255;SDS011;10286;59.364;18.016;2023-03-16T00:36:03;2.60;;;1.73;;
20255;SDS011;10286;59.364;18.016;2023-03-16T00:38:32;4.32;;;1.50;;
20255;SDS011;10286;59.364;18.016;2023-03-16T00:41:01;2.25;;;1.45;;
20255;SDS011;10286;59.364;18.016;2023-03-16T00:43:29;4.60;;;1.85;;
20255;SDS011;10286;59.364;18.016;2023-03-16T00:45:56;3.05;;;1.85;;
20255;SDS011;10286;59.364;18.016;2023-03-16T00:48:23;2.33;;;1.88;;
20255;SDS011;10286;59.364;18.016;2023-03-16T00:50:50;1.60;;;1.30;;
20255;SDS011;10286;59.364;18.016;2023-03-16T00:53:18;1.48;;;1.30;;
20255;SDS011;10286;59.364;18.016;2023-03-16T00:55:46;2.33;;;1.70;;
20255;SDS011;10286;59.364;18.016;2023-03-16T00:58:14;2.97;;;1.63;;
20255;SDS011;10286;59.364;18.016;2023-03-16T01:00:41;2.83;;;1.65;;
20255;SDS011;10286;59.364;18.016;2023-03-16T01:03:09;1.92;;;1.67;;
20255;SDS011;10286;59.364;18.016;2023-03-16T01:05:38;6.95;;;1.75;;
20255;SDS011;10286;59.364;18.016;2023-03-16T01:08:05;3.08;;;1.65;;
20255;SDS011;10286;59.364;18.016;2023-03-16T01:10:32;3.97;;;1.87;;
20255;SDS011;10286;59.364;18.016;2023-03-16T01:12:59;3.08;;;1.70;;
20255;SDS011;10286;59.364;18.016;2023-03-16T01:15:29;7.43;;;1.70;;
20255;SDS011;10286;59.364;18.016;2023-03-16T01:17:55;5.60;;;1.50;;
20255;SDS011;10286;59.364;18.016;2023-03-16T01:20:22;5.53;;;1.90;;
20255;SDS011;10286;59.364;18.016;2023-03-16T01:22:50;3.45;;;1.75;;
20255;SDS011;10286;59.364;18.016;2023-03-16T01:25:17;2.33;;;1.80;;
20255;SDS011;10286;59.364;18.016;2023-03-16T01:27:45;6.60;;;1.80;;
20255;SDS011;10286;59.364;18.016;2023-03-16T01:30:12;4.32;;;2.08;;
20255;SDS011;10286;59.364;18.016;2023-03-16T01:32:41;2.25;;;1.60;;
20255;SDS011;10286;59.364;18.016;2023-03-16T01:35:07;5.60;;;1.75;;
20255;SDS011;10286;59.364;18.016;2023-03-16T01:37:34;3.40;;;2.05;;
20255;SDS011;10286;59.364;18.016;2023-03-16T01:40:01;2.95;;;2.15;;
20255;SDS011;10286;59.364;18.016;2023-03-16T01:42:31;3.85;;;1.50;;
20255;SDS011;10286;59.364;18.016;2023-03-16T01:44:59;1.75;;;1.48;;
20255;SDS011;10286;59.364;18.016;2023-03-16T01:47:29;3.58;;;1.63;;
20255;SDS011;10286;59.364;18.016;2023-03-16T01:50:04;1.70;;;1.60;;
20255;SDS011;10286;59.364;18.016;2023-03-16T01:52:33;1.60;;;1.50;;
20255;SDS011;10286;59.364;18.016;2023-03-16T01:55:02;2.60;;;1.73;;
20255;SDS011;10286;59.364;18.016;2023-03-16T01:57:31;2.00;;;1.70;;
20255;SDS011;10286;59.364;18.016;2023-03-16T02:00:02;8.43;;;1.77;;
20255;SDS011;10286;59.364;18.016;2023-03-16T02:02:33;2.55;;;1.48;;
20255;SDS011;10286;59.364;18.016;2023-03-16T02:05:00;3.58;;;1.90;;
20255;SDS011;10286;59.364;18.016;2023-03-16T02:07:31;4.93;;;1.98;;
20255;SDS011;10286;59.364;18.016;2023-03-16T02:09:59;2.03;;;1.73;;
20255;SDS011;10286;59.364;18.016;2023-03-16T02:12:26;3.03;;;1.95;;
20255;SDS011;10286;59.364;18.016;2023-03-16T02:14:53;5.10;;;1.77;;
20255;SDS011;10286;59.364;18.016;2023-03-16T02:17:20;3.30;;;1.70;;
20255;SDS011;10286;59.364;18.016;2023-03-16T02:22:16;2.28;;;1.50;;
20255;SDS011;10286;59.364;18.016;2023-03-16T02:24:45;3.83;;;1.77;;
20255;SDS011;10286;59.364;18.016;2023-03-16T02:27:12;3.60;;;1.65;;
20255;SDS011;10286;59.364;18.016;2023-03-16T02:29:54;1.73;;;1.42;;
20255;SDS011;10286;59.364;18.016;2023-03-16T02:32:23;2.72;;;1.52;;
20255;SDS011;10286;59.364;18.016;2023-03-16T02:34:50;2.08;;;1.58;;
20255;SDS011;10286;59.364;18.016;2023-03-16T02:37:17;2.17;;;1.63;;
20255;SDS011;10286;59.364;18.016;2023-03-16T02:39:46;1.90;;;1.60;;
20255;SDS011;10286;59.364;18.016;2023-03-16T02:42:14;1.55;;;1.45;;
20255;SDS011;10286;59.364;18.016;2023-03-16T02:44:41;5.32;;;1.85;;
20255;SDS011;10286;59.364;18.016;2023-03-16T02:47:12;2.08;;;1.88;;
20255;SDS011;10286;59.364;18.016;2023-03-16T02:49:42;2.47;;;1.70;;
20255;SDS011;10286;59.364;18.016;2023-03-16T02:54:36;2.00;;;1.50;;
20255;SDS011;10286;59.364;18.016;2023-03-16T02:57:03;3.08;;;1.48;;
20255;SDS011;10286;59.364;18.016;2023-03-16T02:59:30;1.75;;;1.65;;
20255;SDS011;10286;59.364;18.016;2023-03-16T03:01:56;1.65;;;1.55;;
20255;SDS011;10286;59.364;18.016;2023-03-16T03:04:25;3.22;;;1.60;;
20255;SDS011;10286;59.364;18.016;2023-03-16T03:06:51;4.45;;;1.30;;
20255;SDS011;10286;59.364;18.016;2023-03-16T03:09:18;4.43;;;1.77;;
20255;SDS011;10286;59.364;18.016;2023-03-16T03:11:46;2.13;;;1.60;;
20255;SDS011;10286;59.364;18.016;2023-03-16T03:14:13;2.35;;;1.58;;
20255;SDS011;10286;59.364;18.016;2023-03-16T03:16:41;2.65;;;1.63;;
20255;SDS011;10286;59.364;18.016;2023-03-16T03:19:10;1.65;;;1.55;;
20255;SDS011;10286;59.364;18.016;2023-03-16T03:21:39;4.40;;;1.47;;
20255;SDS011;10286;59.364;18.016;2023-03-16T03:24:06;2.33;;;1.60;;
20255;SDS011;10286;59.364;18.016;2023-03-16T03:26:33;2.47;;;1.70;;
20255;SDS011;10286;59.364;18.016;2023-03-16T03:29:02;4.30;;;1.75;;
20255;SDS011;10286;59.364;18.016;2023-03-16T03:31:29;2.25;;;1.60;;
20255;SDS011;10286;59.364;18.016;2023-03-16T03:33:56;2.55;;;1.55;;
20255;SDS011;10286;59.364;18.016;2023-03-16T03:36:23;2.75;;;1.63;;
20255;SDS011;10286;59.364;18.016;2023-03-16T03:38:52;1.50;;;1.40;;
20255;SDS011;10286;59.364;18.016;2023-03-16T03:41:19;3.65;;;1.90;;
20255;SDS011;10286;59.364;18.016;2023-03-16T03:43:46;3.58;;;1.70;;
20255;SDS011;10286;59.364;18.016;2023-03-16T03:46:13;5.78;;;1.88;;
20255;SDS011;10286;59.364;18.016;2023-03-16T03:48:40;2.63;;;1.80;;
20255;SDS011;10286;59.364;18.016;2023-03-16T03:51:07;1.98;;;1.55;;
20255;SDS011;10286;59.364;18.016;2023-03-16T03:53:33;1.77;;;1.38;;
20255;SDS011;10286;59.364;18.016;2023-03-16T03:56:02;1.85;;;1.60;;
20255;SDS011;10286;59.364;18.016;2023-03-16T03:58:28;3.00;;;1.50;;
20255;SDS011;10286;59.364;18.016;2023-03-16T04:00:55;3.13;;;1.77;;
20255;SDS011;10286;59.364;18.016;2023-03-16T04:03:22;1.90;;;1.63;;
20255;SDS011;10286;59.364;18.016;2023-03-16T04:05:49;2.88;;;1.42;;
20255;SDS011;10286;59.364;18.016;2023-03-16T04:08:16;2.30;;;1.48;;
20255;SDS011;10286;59.364;18.016;2023-03-16T04:10:43;5.57;;;1.90;;
20255;SDS011;10286;59.364;18.016;2023-03-16T04:13:11;4.55;;;1.60;;
20255;SDS011;10286;59.364;18.016;2023-03-16T04:15:38;4.57;;;1.98;;
20255;SDS011;10286;59.364;18.016;2023-03-16T04:18:05;4.82;;;2.65;;
20255;SDS011;10286;59.364;18.016;2023-03-16T04:20:32;4.63;;;1.88;;
20255;SDS011;10286;59.364;18.016;2023-03-16T04:22:59;2.65;;;1.38;;
20255;SDS011;10286;59.364;18.016;2023-03-16T04:25:26;4.72;;;1.80;;
20255;SDS011;10286;59.364;18.016;2023-03-16T04:27:54;1.45;;;1.20;;
20255;SDS011;10286;59.364;18.016;2023-03-16T04:30:22;3.53;;;1.75;;
20255;SDS011;10286;59.364;18.016;2023-03-16T04:32:49;2.65;;;1.58;;
20255;SDS011;10286;59.364;18.016;2023-03-16T04:35:16;2.42;;;1.70;;
20255;SDS011;10286;59.364;18.016;2023-03-16T04:37:43;1.83;;;1.40;;
20255;SDS011;10286;59.364;18.016;2023-03-16T04:40:11;2.17;;;1.60;;
20255;SDS011;10286;59.364;18.016;2023-03-16T04:42:43;1.63;;;1.48;;
20255;SDS011;10286;59.364;18.016;2023-03-16T04:45:11;3.40;;;1.60;;
20255;SDS011;10286;59.364;18.016;2023-03-16T04:47:42;1.95;;;1.40;;
20255;SDS011;10286;59.364;18.016;2023-03-16T04:50:11;2.33;;;1.65;;
20255;SDS011;10286;59.364;18.016;2023-03-16T04:52:40;2.70;;;1.63;;
20255;SDS011;10286;59.364;18.016;2023-03-16T04:55:08;3.03;;;1.88;;
20255;SDS011;10286;59.364;18.016;2023-03-16T04:57:35;2.87;;;1.67;;
20255;SDS011;10286;59.364;18.016;2023-03-16T05:00:02;2.75;;;1.80;;
20255;SDS011;10286;59.364;18.016;2023-03-16T05:02:36;2.95;;;1.50;;
20255;SDS011;10286;59.364;18.016;2023-03-16T05:05:04;1.95;;;1.30;;
20255;SDS011;10286;59.364;18.016;2023-03-16T05:07:31;5.35;;;1.80;;
20255;SDS011;10286;59.364;18.016;2023-03-16T05:09:58;3.90;;;1.60;;
20255;SDS011;10286;59.364;18.016;2023-03-16T05:12:24;4.97;;;1.75;;
20255;SDS011;10286;59.364;18.016;2023-03-16T05:14:51;2.88;;;1.50;;
20255;SDS011;10286;59.364;18.016;2023-03-16T05:17:18;4.03;;;1.67;;
20255;SDS011;10286;59.364;18.016;2023-03-16T05:22:14;1.85;;;1.60;;
20255;SDS011;10286;59.364;18.016;2023-03-16T05:24:41;2.33;;;1.60;;
20255;SDS011;10286;59.364;18.016;2023-03-16T05:27:08;3.63;;;1.52;;
20255;SDS011;10286;59.364;18.016;2023-03-16T05:29:34;1.63;;;1.52;;
20255;SDS011;10286;59.364;18.016;2023-03-16T05:32:01;2.08;;;1.80;;
20255;SDS011;10286;59.364;18.016;2023-03-16T05:34:28;2.63;;;1.67;;
20255;SDS011;10286;59.364;18.016;2023-03-16T05:36:55;3.72;;;2.15;;
20255;SDS011;10286;59.364;18.016;2023-03-16T05:39:23;3.20;;;1.85;;
20255;SDS011;10286;59.364;18.016;2023-03-16T05:41:50;4.63;;;2.00;;
20255;SDS011;10286;59.364;18.016;2023-03-16T05:44:19;3.08;;;1.70;;
20255;SDS011;10286;59.364;18.016;2023-03-16T05:46:46;1.70;;;1.50;;
20255;SDS011;10286;59.364;18.016;2023-03-16T05:49:12;2.38;;;1.50;;
20255;SDS011;10286;59.364;18.016;2023-03-16T05:51:40;3.42;;;1.92;;
20255;SDS011;10286;59.364;18.016;2023-03-16T05:54:07;3.77;;;2.13;;
20255;SDS011;10286;59.364;18.016;2023-03-16T05:56:35;3.75;;;1.90;;
20255;SDS011;10286;59.364;18.016;2023-03-16T05:59:02;2.70;;;1.60;;
20255;SDS011;10286;59.364;18.016;2023-03-16T06:01:29;3.53;;;2.35;;
20255;SDS011;10286;59.364;18.016;2023-03-16T06:03:58;4.15;;;1.90;;
20255;SDS011;10286;59.364;18.016;2023-03-16T06:06:26;5.13;;;2.00;;
20255;SDS011;10286;59.364;18.016;2023-03-16T06:08:52;3.80;;;1.77;;
20255;SDS011;10286;59.364;18.016;2023-03-16T06:11:19;3.37;;;1.73;;
20255;SDS011;10286;59.364;18.016;2023-03-16T06:13:48;3.63;;;1.73;;
20255;SDS011;10286;59.364;18.016;2023-03-16T06:16:14;4.07;;;1.80;;
20255;SDS011;10286;59.364;18.016;2023-03-16T06:18:41;3.80;;;1.80;;
20255;SDS011;10286;59.364;18.016;2023-03-16T06:21:08;4.40;;;1.63;;
20255;SDS011;10286;59.364;18.016;2023-03-16T06:23:35;4.82;;;1.75;;
20255;SDS011;10286;59.364;18.016;2023-03-16T06:26:02;3.90;;;2.03;;
20255;SDS011;10286;59.364;18.016;2023-03-16T06:28:29;3.13;;;1.88;;
20255;SDS011;10286;59.364;18.016;2023-03-16T06:30:58;3.10;;;1.85;;
20255;SDS011;10286;59.364;18.016;2023-03-16T06:33:25;3.20;;;1.98;;
20255;SDS011;10286;59.364;18.016;2023-03-16T06:35:52;4.20;;;2.60;;
20255;SDS011;10286;59.364;18.016;2023-03-16T06:38:19;2.70;;;2.03;;
20255;SDS011;10286;59.364;18.016;2023-03-16T06:40:50;4.27;;;2.20;;
20255;SDS011;10286;59.364;18.016;2023-03-16T06:43:17;3.95;;;2.08;;
20255;SDS011;10286;59.364;18.016;2023-03-16T06:45:44;3.73;;;2.20;;
20255;SDS011;10286;59.364;18.016;2023-03-16T06:48:12;9.40;;;2.10;;
20255;SDS011;10286;59.364;18.016;2023-03-16T06:50:39;3.95;;;1.75;;
20255;SDS011;10286;59.364;18.016;2023-03-16T06:53:07;9.93;;;2.20;;
20255;SDS011;10286;59.364;18.016;2023-03-16T06:55:34;6.28;;;2.17;;
20255;SDS011;10286;59.364;18.016;2023-03-16T06:58:01;5.65;;;2.03;;
20255;SDS011;10286;59.364;18.016;2023-03-16T07:00:28;5.95;;;1.85;;
20255;SDS011;10286;59.364;18.016;2023-03-16T07:02:55;3.47;;;1.73;;
20255;SDS011;10286;59.364;18.016;2023-03-16T07:05:23;3.33;;;1.52;;
20255;SDS011;10286;59.364;18.016;2023-03-16T07:07:50;3.55;;;1.77;;
20255;SDS011;10286;59.364;18.016;2023-03-16T07:10:18;3.50;;;1.55;;
20255;SDS011;10286;59.364;18.016;2023-03-16T07:12:45;6.18;;;1.85;;
20255;SDS011;10286;59.364;18.016;2023-03-16T07:15:12;4.30;;;2.03;;
20255;SDS011;10286;59.364;18.016;2023-03-16T07:17:40;8.10;;;1.98;;
20255;SDS011;10286;59.364;18.016;2023-03-16T07:22:36;3.85;;;1.30;;
20255;SDS011;10286;59.364;18.016;2023-03-16T07:25:04;2.70;;;1.42;;
20255;SDS011;10286;59.364;18.016;2023-03-16T07:27:31;6.93;;;1.38;;
20255;SDS011;10286;59.364;18.016;2023-03-16T07:29:57;4.65;;;1.50;;
20255;SDS011;10286;59.364;18.016;2023-03-16T07:32:25;8.90;;;3.90;;
20255;SDS011;10286;59.364;18.016;2023-03-16T07:34:52;5.78;;;1.70;;
20255;SDS011;10286;59.364;18.016;2023-03-16T07:37:19;2.10;;;1.33;;
20255;SDS011;10286;59.364;18.016;2023-03-16T07:39:47;9.07;;;1.65;;
20255;SDS011;10286;59.364;18.016;2023-03-16T07:42:14;6.63;;;1.80;;
20255;SDS011;10286;59.364;18.016;2023-03-16T07:44:41;7.70;;;1.60;;
20255;SDS011;10286;59.364;18.016;2023-03-16T07:47:08;10.85;;;3.08;;
20255;SDS011;10286;59.364;18.016;2023-03-16T07:49:37;10.18;;;2.47;;
20255;SDS011;10286;59.364;18.016;2023-03-16T07:54:32;12.15;;;2.20;;
20255;SDS011;10286;59.364;18.016;2023-03-16T07:57:00;9.48;;;2.35;;
20255;SDS011;10286;59.364;18.016;2023-03-16T07:59:27;10.77;;;1.90;;
20255;SDS011;10286;59.364;18.016;2023-03-16T08:01:54;18.85;;;2.72;;
20255;SDS011;10286;59.364;18.016;2023-03-16T08:04:21;9.85;;;2.00;;
20255;SDS011;10286;59.364;18.016;2023-03-16T08:06:48;11.88;;;2.15;;
20255;SDS011;10286;59.364;18.016;2023-03-16T08:09:16;17.30;;;3.30;;
20255;SDS011;10286;59.364;18.016;2023-03-16T08:11:43;11.68;;;2.15;;
20255;SDS011;10286;59.364;18.016;2023-03-16T08:14:11;13.60;;;2.33;;
20255;SDS011;10286;59.364;18.016;2023-03-16T08:16:38;18.90;;;2.30;;
20255;SDS011;10286;59.364;18.016;2023-03-16T08:19:05;9.23;;;1.90;;
20255;SDS011;10286;59.364;18.016;2023-03-16T08:21:32;15.65;;;2.72;;
20255;SDS011;10286;59.364;18.016;2023-03-16T08:24:00;15.30;;;2.35;;
20255;SDS011;10286;59.364;18.016;2023-03-16T08:26:27;9.77;;;1.95;;
20255;SDS011;10286;59.364;18.016;2023-03-16T08:28:54;22.13;;;2.13;;
20255;SDS011;10286;59.364;18.016;2023-03-16T08:31:22;19.05;;;2.08;;
20255;SDS011;10286;59.364;18.016;2023-03-16T08:33:49;11.23;;;2.22;;
20255;SDS011;10286;59.364;18.016;2023-03-16T08:36:16;15.88;;;2.10;;
20255;SDS011;10286;59.364;18.016;2023-03-16T08:38:45;13.88;;;1.83;;
20255;SDS011;10286;59.364;18.016;2023-03-16T08:41:12;15.70;;;2.23;;
20255;SDS011;10286;59.364;18.016;2023-03-16T08:43:40;15.25;;;2.53;;
20255;SDS011;10286;59.364;18.016;2023-03-16T08:46:08;16.35;;;2.85;;
20255;SDS011;10286;59.364;18.016;2023-03-16T08:48:37;12.40;;;2.00;;
20255;SDS011;10286;59.364;18.016;2023-03-16T08:51:04;5.03;;;1.75;;
20255;SDS011;10286;59.364;18.016;2023-03-16T08:53:31;11.18;;;2.00;;
20255;SDS011;10286;59.364;18.016;2023-03-16T08:56:01;18.83;;;2.78;;
20255;SDS011;10286;59.364;18.016;2023-03-16T08:58:29;6.97;;;1.83;;
20255;SDS011;10286;59.364;18.016;2023-03-16T09:00:56;12.50;;;2.55;;
20255;SDS011;10286;59.364;18.016;2023-03-16T09:03:23;12.13;;;2.15;;
20255;SDS011;10286;59.364;18.016;2023-03-16T09:05:51;14.48;;;2.25;;
20255;SDS011;10286;59.364;18.016;2023-03-16T09:08:18;14.20;;;2.63;;
20255;SDS011;10286;59.364;18.016;2023-03-16T09:10:45;11.80;;;2.25;;
20255;SDS011;10286;59.364;18.016;2023-03-16T09:13:12;18.80;;;2.37;;
20255;SDS011;10286;59.364;18.016;2023-03-16T09:15:39;8.48;;;2.38;;
20255;SDS011;10286;59.364;18.016;2023-03-16T09:18:06;16.15;;;2.15;;
20255;SDS011;10286;59.364;18.016;2023-03-16T09:20:32;9.25;;;2.45;;
20255;SDS011;10286;59.364;18.016;2023-03-16T09:23:01;6.22;;;1.73;;
20255;SDS011;10286;59.364;18.016;2023-03-16T09:25:29;15.63;;;2.17;;
20255;SDS011;10286;59.364;18.016;2023-03-16T09:27:56;11.65;;;2.30;;
20255;SDS011;10286;59.364;18.016;2023-03-16T09:30:23;14.07;;;3.00;;
20255;SDS011;10286;59.364;18.016;2023-03-16T09:32:50;21.25;;;3.03;;
20255;SDS011;10286;59.364;18.016;2023-03-16T09:35:17;8.48;;;2.38;;
20255;SDS011;10286;59.364;18.016;2023-03-16T09:37:44;21.20;;;3.03;;
20255;SDS011;10286;59.364;18.016;2023-03-16T09:40:16;18.45;;;2.75;;
20255;SDS011;10286;59.364;18.016;2023-03-16T09:42:47;10.23;;;2.15;;
20255;SDS011;10286;59.364;18.016;2023-03-16T09:45:17;12.32;;;2.20;;
20255;SDS011;10286;59.364;18.016;2023-03-16T09:47:45;21.15;;;2.42;;
20255;SDS011;10286;59.364;18.016;2023-03-16T09:50:15;6.85;;;1.92;;
20255;SDS011;10286;59.364;18.016;2023-03-16T09:52:46;3.80;;;1.40;;
20255;SDS011;10286;59.364;18.016;2023-03-16T09:55:18;9.07;;;1.63;;
20255;SDS011;10286;59.364;18.016;2023-03-16T09:57:49;9.05;;;1.92;;
20255;SDS011;10286;59.364;18.016;2023-03-16T10:00:17;14.10;;;2.28;;
20255;SDS011;10286;59.364;18.016;2023-03-16T10:02:52;15.95;;;2.00;;
20255;SDS011;10286;59.364;18.016;2023-03-16T10:05:22;7.07;;;1.90;;
20255;SDS011;10286;59.364;18.016;2023-03-16T10:07:51;13.70;;;1.80;;
20255;SDS011;10286;59.364;18.016;2023-03-16T10:10:28;10.30;;;2.25;;
20255;SDS011;10286;59.364;18.016;2023-03-16T10:13:02;7.93;;;2.00;;
20255;SDS011;10286;59.364;18.016;2023-03-16T10:15:31;11.68;;;2.08;;
20255;SDS011;10286;59.364;18.016;2023-03-16T10:17:59;9.52;;;1.70;;
20255;SDS011;10286;59.364;18.016;2023-03-16T10:20:30;13.63;;;2.40;;
20255;SDS011;10286;59.364;18.016;2023-03-16T10:22:58;14.23;;;2.30;;
20255;SDS011;10286;59.364;18.016;2023-03-16T10:25:29;11.00;;;2.10;;
20255;SDS011;10286;59.364;18.016;2023-03-16T10:27:58;8.32;;;2.00;;
20255;SDS011;10286;59.364;18.016;2023-03-16T10:30:25;6.95;;;1.80;;
20255;SDS011;10286;59.364;18.016;2023-03-16T10:32:53;13.40;;;1.98;;
20255;SDS011;10286;59.364;18.016;2023-03-16T10:35:32;9.93;;;2.30;;
20255;SDS011;10286;59.364;18.016;2023-03-16T10:38:03;10.15;;;1.90;;
20255;SDS011;10286;59.364;18.016;2023-03-16T10:40:36;16.25;;;2.58;;
20255;SDS011;10286;59.364;18.016;2023-03-16T10:43:05;8.32;;;1.80;;
20255;SDS011;10286;59.364;18.016;2023-03-16T10:45:33;13.32;;;2.10;;
20255;SDS011;10286;59.364;18.016;2023-03-16T10:48:07;13.18;;;2.25;;
20255;SDS011;10286;59.364;18.016;2023-03-16T10:50:34;7.55;;;1.90;;
20255;SDS011;10286;59.364;18.016;2023-03-16T10:53:01;11.00;;;1.80;;
20255;SDS011;10286;59.364;18.016;2023-03-16T10:55:30;9.75;;;2.08;;
20255;SDS011;10286;59.364;18.016;2023-03-16T10:58:00;5.18;;;1.98;;
20255;SDS011;10286;59.364;18.016;2023-03-16T11:00:28;11.45;;;1.92;;
20255;SDS011;10286;59.364;18.016;2023-03-16T11:02:57;7.68;;;2.00;;
20255;SDS011;10286;59.364;18.016;2023-03-16T11:05:28;7.32;;;1.83;;
20255;SDS011;10286;59.364;18.016;2023-03-16T11:07:59;8.18;;;1.63;;
20255;SDS011;10286;59.364;18.016;2023-03-16T11:10:30;9.93;;;2.00;;
20255;SDS011;10286;59.364;18.016;2023-03-16T11:13:03;23.48;;;2.83;;
20255;SDS011;10286;59.364;18.016;2023-03-16T11:15:35;11.68;;;2.10;;
20255;SDS011;10286;59.364;18.016;2023-03-16T11:18:02;6.28;;;1.80;;
20255;SDS011;10286;59.364;18.016;2023-03-16T11:20:29;14.32;;;2.15;;
20255;SDS011;10286;59.364;18.016;2023-03-16T11:22:59;7.95;;;1.60;;
20255;SDS011;10286;59.364;18.016;2023-03-16T11:25:27;5.32;;;1.92;;
20255;SDS011;10286;59.364;18.016;2023-03-16T11:27:56;7.70;;;1.90;;
20255;SDS011;10286;59.364;18.016;2023-03-16T11:30:32;7.30;;;1.80;;
20255;SDS011;10286;59.364;18.016;2023-03-16T11:33:00;10.40;;;2.20;;
20255;SDS011;10286;59.364;18.016;2023-03-16T11:35:31;8.25;;;2.22;;
20255;SDS011;10286;59.364;18.016;2023-03-16T11:38:05;9.55;;;2.20;;
20255;SDS011;10286;59.364;18.016;2023-03-16T11:40:42;8.10;;;2.58;;
20255;SDS011;10286;59.364;18.016;2023-03-16T11:43:17;11.15;;;2.05;;
20255;SDS011;10286;59.364;18.016;2023-03-16T11:45:59;7.25;;;1.90;;
20255;SDS011;10286;59.364;18.016;2023-03-16T11:48:34;8.25;;;1.92;;
20255;SDS011;10286;59.364;18.016;2023-03-16T11:51:04;6.78;;;1.98;;
20255;SDS011;10286;59.364;18.016;2023-03-16T11:53:35;7.78;;;2.30;;
20255;SDS011;10286;59.364;18.016;2023-03-16T11:56:07;7.95;;;2.00;;
20255;SDS011;10286;59.364;18.016;2023-03-16T11:58:41;7.82;;;1.92;;
20255;SDS011;10286;59.364;18.016;2023-03-16T12:01:16;9.35;;;2.40;;
20255;SDS011;10286;59.364;18.016;2023-03-16T12:06:33;9.38;;;2.15;;
20255;SDS011;10286;59.364;18.016;2023-03-16T12:09:06;4.82;;;2.08;;
20255;SDS011;10286;59.364;18.016;2023-03-16T12:11:40;4.53;;;2.03;;
20255;SDS011;10286;59.364;18.016;2023-03-16T12:14:13;6.07;;;1.73;;
20255;SDS011;10286;59.364;18.016;2023-03-16T12:16:47;8.77;;;2.28;;
20255;SDS011;10286;59.364;18.016;2023-03-16T12:19:17;11.18;;;2.92;;
20255;SDS011;10286;59.364;18.016;2023-03-16T12:21:47;9.25;;;1.92;;
20255;SDS011;10286;59.364;18.016;2023-03-16T12:24:19;7.57;;;2.10;;
20255;SDS011;10286;59.364;18.016;2023-03-16T12:26:48;10.98;;;2.40;;
20255;SDS011;10286;59.364;18.016;2023-03-16T12:29:18;8.57;;;2.20;;
20255;SDS011;10286;59.364;18.016;2023-03-16T12:31:50;12.65;;;2.13;;
20255;SDS011;10286;59.364;18.016;2023-03-16T12:34:21;9.07;;;2.30;;
20255;SDS011;10286;59.364;18.016;2023-03-16T12:37:07;5.80;;;2.00;;
20255;SDS011;10286;59.364;18.016;2023-03-16T12:42:23;5.18;;;1.90;;
20255;SDS011;10286;59.364;18.016;2023-03-16T12:44:52;4.78;;;1.70;;
20255;SDS011;10286;59.364;18.016;2023-03-16T12:47:24;5.82;;;1.77;;
20255;SDS011;10286;59.364;18.016;2023-03-16T12:49:54;4.90;;;1.90;;
20255;SDS011;10286;59.364;18.016;2023-03-16T12:52:37;7.30;;;2.30;;
20255;SDS011;10286;59.364;18.016;2023-03-16T12:55:06;9.98;;;2.33;;
20255;SDS011;10286;59.364;18.016;2023-03-16T12:57:34;5.35;;;1.73;;
20255;SDS011;10286;59.364;18.016;2023-03-16T13:00:01;9.32;;;2.20;;
20255;SDS011;10286;59.364;18.016;2023-03-16T13:02:35;13.00;;;2.45;;
20255;SDS011;10286;59.364;18.016;2023-03-16T13:05:07;8.30;;;1.95;;
20255;SDS011;10286;59.364;18.016;2023-03-16T13:07:34;9.57;;;2.10;;
20255;SDS011;10286;59.364;18.016;2023-03-16T13:10:03;8.07;;;2.35;;
20255;SDS011;10286;59.364;18.016;2023-03-16T13:12:33;9.80;;;2.22;;
20255;SDS011;10286;59.364;18.016;2023-03-16T13:15:01;4.55;;;1.98;;
20255;SDS011;10286;59.364;18.016;2023-03-16T13:17:30;13.57;;;2.10;;
20255;SDS011;10286;59.364;18.016;2023-03-16T13:20:06;6.97;;;1.73;;
20255;SDS011;10286;59.364;18.016;2023-03-16T13:22:49;4.82;;;1.98;;
20255;SDS011;10286;59.364;18.016;2023-03-16T13:25:20;18.30;;;2.72;;
20255;SDS011;10286;59.364;18.016;2023-03-16T13:27:50;5.80;;;1.83;;
20255;SDS011;10286;59.364;18.016;2023-03-16T13:30:19;7.63;;;2.42;;
20255;SDS011;10286;59.364;18.016;2023-03-16T13:32:47;4.53;;;1.90;;
20255;SDS011;10286;59.364;18.016;2023-03-16T13:35:19;10.02;;;1.75;;
20255;SDS011;10286;59.364;18.016;2023-03-16T13:37:47;8.63;;;1.90;;
20255;SDS011;10286;59.364;18.016;2023-03-16T13:40:16;8.23;;;1.70;;
20255;SDS011;10286;59.364;18.016;2023-03-16T13:42:43;10.05;;;2.20;;
20255;SDS011;10286;59.364;18.016;2023-03-16T13:45:12;10.40;;;2.38;;
20255;SDS011;10286;59.364;18.016;2023-03-16T13:47:40;5.15;;;2.08;;
20255;SDS011;10286;59.364;18.016;2023-03-16T13:50:09;5.43;;;1.88;;
20255;SDS011;10286;59.364;18.016;2023-03-16T13:52:38;6.40;;;1.60;;
20255;SDS011;10286;59.364;18.016;2023-03-16T13:55:09;5.63;;;1.63;;
20255;SDS011;10286;59.364;18.016;2023-03-16T13:57:39;6.63;;;1.92;;
20255;SDS011;10286;59.364;18.016;2023-03-16T14:00:12;9.05;;;2.10;;
20255;SDS011;10286;59.364;18.016;2023-03-16T14:02:42;4.82;;;1.63;;
20255;SDS011;10286;59.364;18.016;2023-03-16T14:05:10;5.85;;;1.50;;
20255;SDS011;10286;59.364;18.016;2023-03-16T14:07:38;5.93;;;1.70;;
20255;SDS011;10286;59.364;18.016;2023-03-16T14:10:05;6.22;;;1.67;;
20255;SDS011;10286;59.364;18.016;2023-03-16T14:12:33;6.30;;;2.15;;
20255;SDS011;10286;59.364;18.016;2023-03-16T14:15:02;12.50;;;1.83;;
20255;SDS011;10286;59.364;18.016;2023-03-16T14:17:31;10.82;;;2.05;;
20255;SDS011;10286;59.364;18.016;2023-03-16T14:19:58;5.65;;;1.90;;
20255;SDS011;10286;59.364;18.016;2023-03-16T14:22:29;10.75;;;1.80;;
20255;SDS011;10286;59.364;18.016;2023-03-16T14:24:59;25.27;;;2.03;;
20255;SDS011;10286;59.364;18.016;2023-03-16T14:27:30;4.30;;;1.30;;
20255;SDS011;10286;59.364;18.016;2023-03-16T14:29:58;3.75;;;1.38;;
20255;SDS011;10286;59.364;18.016;2023-03-16T14:35:00;3.63;;;1.27;;
20255;SDS011;10286;59.364;18.016;2023-03-16T14:37:34;4.70;;;1.75;;
20255;SDS011;10286;59.364;18.016;2023-03-16T14:40:03;5.50;;;2.13;;
20255;SDS011;10286;59.364;18.016;2023-03-16T14:42:31;6.03;;;1.52;;
20255;SDS011;10286;59.364;18.016;2023-03-16T14:44:59;13.60;;;2.13;;
20255;SDS011;10286;59.364;18.016;2023-03-16T14:47:27;6.18;;;2.03;;
20255;SDS011;10286;59.364;18.016;2023-03-16T14:49:55;7.55;;;1.70;;
20255;SDS011;10286;59.364;18.016;2023-03-16T14:52:23;14.73;;;2.08;;
20255;SDS011;10286;59.364;18.016;2023-03-16T14:54:52;13.90;;;2.05;;
20255;SDS011;10286;59.364;18.016;2023-03-16T14:57:21;8.40;;;2.03;;
20255;SDS011;10286;59.364;18.016;2023-03-16T14:59:47;14.85;;;2.42;;